createdAt,value
2022-11-23T00:01:40.361Z,2.80
2022-11-23T00:04:11.067Z,2.80
2022-11-23T00:06:41.862Z,2.80
2022-11-23T00:09:12.700Z,2.80
2022-11-23T00:11:41.410Z,2.90
2022-11-23T00:14:09.801Z,2.90
2022-11-23T00:16:50.372Z,2.80
2022-11-23T00:19:18.647Z,2.90
2022-11-23T00:21:48.793Z,2.90
2022-11-23T00:24:17.170Z,2.90
2022-11-23T00:26:45.860Z,2.90
2022-11-23T00:29:14.350Z,2.90
2022-11-23T00:31:43.230Z,2.90
2022-11-23T00:34:11.641Z,2.90
2022-11-23T00:36:40.639Z,2.90
2022-11-23T00:39:10.482Z,2.90
2022-11-23T00:41:39.125Z,2.90
2022-11-23T00:44:07.965Z,2.90
2022-11-23T00:46:36.747Z,2.90
2022-11-23T00:49:06.837Z,2.90
2022-11-23T00:51:37.824Z,2.90
2022-11-23T00:54:07.514Z,2.90
2022-11-23T00:56:37.534Z,2.90
2022-11-23T00:59:06.150Z,2.90
2022-11-23T01:01:37.418Z,2.90
2022-11-23T01:04:07.877Z,2.90
2022-11-23T01:06:39.894Z,2.90
2022-11-23T01:09:12.197Z,2.90
2022-11-23T01:11:42.293Z,2.90
2022-11-23T01:14:11.309Z,2.90
2022-11-23T01:16:41.876Z,2.90
2022-11-23T01:19:13.319Z,2.90
2022-11-23T01:21:42.616Z,2.90
2022-11-23T01:24:14.812Z,2.90
2022-11-23T01:26:45.617Z,2.80
2022-11-23T01:29:14.913Z,2.80
2022-11-23T01:31:46.707Z,2.80
2022-11-23T01:34:16.075Z,2.80
2022-11-23T01:36:46.420Z,2.80
2022-11-23T01:39:15.853Z,2.80
2022-11-23T01:41:47.253Z,2.80
2022-11-23T01:44:30.842Z,2.80
2022-11-23T01:47:01.047Z,2.80
2022-11-23T01:49:32.886Z,2.80
2022-11-23T01:52:05.407Z,2.80
2022-11-23T01:54:37.848Z,2.80
2022-11-23T01:57:11.530Z,2.80
2022-11-23T01:59:40.383Z,2.80
2022-11-23T02:02:09.361Z,2.80
2022-11-23T02:04:41.236Z,2.80
2022-11-23T02:07:10.517Z,2.90
2022-11-23T02:09:40.042Z,2.90
2022-11-23T02:12:12.701Z,2.90
2022-11-23T02:14:42.128Z,2.90
2022-11-23T02:17:10.851Z,2.90
2022-11-23T02:19:47.677Z,2.90
2022-11-23T02:22:24.021Z,2.90
2022-11-23T02:24:55.586Z,2.90
2022-11-23T02:27:26.218Z,2.80
2022-11-23T02:29:55.517Z,2.80
2022-11-23T02:32:26.147Z,2.80
2022-11-23T02:34:54.632Z,2.80
2022-11-23T02:37:23.392Z,2.80
2022-11-23T02:39:53.245Z,2.90
2022-11-23T02:42:22.394Z,2.80
2022-11-23T02:45:00.387Z,2.90
2022-11-23T02:47:29.146Z,2.90
2022-11-23T02:49:57.546Z,2.90
2022-11-23T02:52:26.546Z,2.80
2022-11-23T02:54:55.337Z,2.90
2022-11-23T02:57:24.261Z,2.80
2022-11-23T02:59:54.273Z,2.80
2022-11-23T03:02:23.248Z,2.80
2022-11-23T03:04:51.569Z,2.80
2022-11-23T03:07:20.360Z,2.80
2022-11-23T03:09:48.886Z,2.80
2022-11-23T03:12:17.706Z,2.80
2022-11-23T03:14:46.193Z,2.80
2022-11-23T03:17:16.296Z,2.80
2022-11-23T03:19:44.680Z,2.90
2022-11-23T03:22:13.501Z,2.80
2022-11-23T03:24:41.961Z,2.80
2022-11-23T03:27:10.678Z,2.80
2022-11-23T03:29:39.049Z,2.80
2022-11-23T03:32:07.801Z,2.80
2022-11-23T03:34:37.547Z,2.80
2022-11-23T03:37:06.399Z,2.80
2022-11-23T03:39:34.832Z,2.80
2022-11-23T03:42:03.822Z,2.80
2022-11-23T03:44:32.160Z,2.80
2022-11-23T03:47:00.906Z,2.80
2022-11-23T03:49:29.609Z,2.80
2022-11-23T03:52:00.022Z,2.80
2022-11-23T03:54:28.328Z,2.80
2022-11-23T03:56:57.019Z,2.80
2022-11-23T03:59:25.398Z,2.80
2022-11-23T04:01:54.127Z,2.80
2022-11-23T04:04:22.465Z,2.80
2022-11-23T04:06:51.160Z,2.80
2022-11-23T04:09:24.585Z,2.80
2022-11-23T04:11:53.746Z,2.80
2022-11-23T04:14:22.146Z,2.80
2022-11-23T04:16:50.814Z,2.80
2022-11-23T04:19:19.204Z,2.80
2022-11-23T04:21:48.056Z,2.80
2022-11-23T04:24:16.394Z,2.80
2022-11-23T04:26:46.802Z,2.80
2022-11-23T04:29:15.297Z,2.80
2022-11-23T04:31:44.005Z,2.70
2022-11-23T04:34:12.466Z,2.80
2022-11-23T04:36:41.161Z,2.80
2022-11-23T04:39:09.849Z,2.80
2022-11-23T04:41:38.432Z,2.80
2022-11-23T04:44:08.428Z,2.70
2022-11-23T04:46:37.117Z,2.80
2022-11-23T04:49:05.696Z,2.70
2022-11-23T04:51:34.469Z,2.70
2022-11-23T04:54:02.950Z,2.80
2022-11-23T04:56:31.566Z,2.80
2022-11-23T04:58:59.911Z,2.80
2022-11-23T05:01:30.035Z,2.80
2022-11-23T05:03:59.491Z,2.80
2022-11-23T05:06:28.430Z,2.80
2022-11-23T05:08:56.820Z,2.80
2022-11-23T05:11:27.140Z,2.80
2022-11-23T05:13:55.485Z,2.80
2022-11-23T05:16:24.515Z,2.80
2022-11-23T05:18:54.196Z,2.80
2022-11-23T05:21:22.941Z,2.80
2022-11-23T05:23:51.562Z,2.80
2022-11-23T05:26:20.226Z,2.80
2022-11-23T05:28:49.319Z,2.90
2022-11-23T05:31:18.576Z,2.80
2022-11-23T05:33:47.463Z,2.80
2022-11-23T05:36:17.919Z,2.80
2022-11-23T05:38:46.286Z,2.80
2022-11-23T05:41:14.873Z,2.80
2022-11-23T05:43:43.306Z,2.80
2022-11-23T05:46:11.917Z,2.80
2022-11-23T05:48:40.203Z,2.80
2022-11-23T05:51:08.753Z,2.90
2022-11-23T05:53:38.439Z,2.80
2022-11-23T05:56:08.304Z,2.90
2022-11-23T05:58:36.723Z,2.90
2022-11-23T06:01:05.584Z,2.90
2022-11-23T06:03:34.087Z,2.90
2022-11-23T06:06:02.757Z,2.90
2022-11-23T06:08:31.140Z,2.90
2022-11-23T06:11:03.191Z,2.90
2022-11-23T06:13:31.683Z,2.90
2022-11-23T06:16:00.445Z,2.90
2022-11-23T06:18:28.747Z,2.90
2022-11-23T06:21:00.248Z,2.90
2022-11-23T06:23:28.818Z,2.90
2022-11-23T06:26:02.536Z,3.00
2022-11-23T06:28:31.064Z,3.00
2022-11-23T06:31:03.537Z,2.90
2022-11-23T06:33:31.828Z,3.00
2022-11-23T06:36:02.045Z,3.10
2022-11-23T06:38:31.038Z,3.00
2022-11-23T06:41:00.238Z,3.00
2022-11-23T06:43:30.553Z,3.00
2022-11-23T06:45:59.649Z,3.00
2022-11-23T06:48:28.143Z,3.00
2022-11-23T06:50:59.342Z,3.00
2022-11-23T06:53:27.780Z,3.00
2022-11-23T06:56:00.252Z,3.10
2022-11-23T06:58:30.146Z,3.10
2022-11-23T07:01:02.760Z,3.00
2022-11-23T07:03:31.493Z,3.10
2022-11-23T07:06:00.597Z,3.10
2022-11-23T07:08:29.099Z,3.10
2022-11-23T07:11:01.663Z,3.10
2022-11-23T07:13:31.596Z,3.10
2022-11-23T07:16:00.699Z,3.10
2022-11-23T07:18:29.618Z,3.10
2022-11-23T07:20:59.738Z,3.10
2022-11-23T07:23:28.332Z,3.10
2022-11-23T07:25:57.115Z,3.10
2022-11-23T07:28:25.689Z,3.10
2022-11-23T07:30:56.211Z,3.10
2022-11-23T07:33:24.707Z,3.10
2022-11-23T07:35:53.606Z,3.20
2022-11-23T07:38:21.945Z,3.20
2022-11-23T07:40:51.711Z,3.20
2022-11-23T07:43:20.043Z,3.20
2022-11-23T07:45:49.014Z,3.20
2022-11-23T07:48:19.149Z,3.20
2022-11-23T07:50:47.608Z,3.20
2022-11-23T07:53:16.110Z,3.20
2022-11-23T07:55:44.643Z,3.20
2022-11-23T07:58:13.135Z,3.20
2022-11-23T08:00:42.226Z,3.20
2022-11-23T08:03:30.553Z,3.20
2022-11-23T08:06:01.417Z,3.20
2022-11-23T08:08:30.264Z,3.20
2022-11-23T08:10:58.884Z,3.20
2022-11-23T08:13:27.542Z,3.30
2022-11-23T08:15:56.267Z,3.20
2022-11-23T08:18:25.399Z,3.30
2022-11-23T08:20:53.912Z,3.30
2022-11-23T08:23:25.685Z,3.30
2022-11-23T08:25:54.422Z,3.30
2022-11-23T08:28:22.962Z,3.30
2022-11-23T08:30:51.835Z,3.30
2022-11-23T08:33:20.617Z,3.30
2022-11-23T08:35:49.423Z,3.40
2022-11-23T08:38:18.013Z,3.40
2022-11-23T08:40:48.227Z,3.40
2022-11-23T08:43:16.728Z,3.40
2022-11-23T08:45:45.321Z,3.30
2022-11-23T08:48:13.605Z,3.30
2022-11-23T08:50:42.152Z,3.30
2022-11-23T08:53:11.023Z,3.40
2022-11-23T08:55:39.707Z,3.40
2022-11-23T08:58:13.346Z,3.40
2022-11-23T09:00:42.919Z,3.40
2022-11-23T09:03:12.316Z,3.40
2022-11-23T09:05:41.135Z,3.40
2022-11-23T09:08:10.206Z,3.40
2022-11-23T09:10:38.892Z,3.40
2022-11-23T09:13:09.290Z,3.40
2022-11-23T09:15:37.595Z,3.40
2022-11-23T09:18:06.651Z,3.40
2022-11-23T09:20:35.337Z,3.50
2022-11-23T09:23:06.858Z,3.40
2022-11-23T09:25:37.703Z,3.40
2022-11-23T09:28:06.368Z,3.40
2022-11-23T09:30:36.314Z,3.40
2022-11-23T09:33:05.262Z,3.40
2022-11-23T09:35:33.769Z,3.40
2022-11-23T09:38:02.746Z,3.40
2022-11-23T09:40:34.494Z,3.30
2022-11-23T09:43:25.761Z,3.40
2022-11-23T09:45:58.533Z,3.40
2022-11-23T09:48:44.529Z,3.40
2022-11-23T09:51:17.685Z,3.40
2022-11-23T09:53:50.205Z,3.40
2022-11-23T09:56:21.516Z,3.50
2022-11-23T09:58:55.312Z,3.40
2022-11-23T10:01:27.025Z,3.50
2022-11-23T10:03:55.914Z,3.40
2022-11-23T10:06:26.614Z,3.40
2022-11-23T10:09:24.583Z,3.50
2022-11-23T10:12:15.684Z,3.50
2022-11-23T10:14:59.521Z,3.50
2022-11-23T10:17:44.999Z,3.40
2022-11-23T10:20:30.129Z,3.50
2022-11-23T10:23:00.994Z,3.60
2022-11-23T10:25:39.326Z,3.60
2022-11-23T10:28:13.791Z,3.70
2022-11-23T10:30:42.809Z,3.70
2022-11-23T10:33:22.872Z,3.70
2022-11-23T10:35:51.729Z,3.70
2022-11-23T10:38:22.141Z,3.70
2022-11-23T10:41:02.398Z,3.70
2022-11-23T10:43:36.172Z,3.70
2022-11-23T10:46:25.487Z,3.70
2022-11-23T10:48:56.201Z,3.70
2022-11-23T10:51:33.303Z,3.70
2022-11-23T10:54:05.632Z,3.80
2022-11-23T10:56:35.650Z,3.80
2022-11-23T10:59:04.671Z,3.80
2022-11-23T11:01:33.668Z,3.80
2022-11-23T11:04:05.740Z,3.90
2022-11-23T11:06:36.272Z,3.80
2022-11-23T11:09:12.213Z,3.80
2022-11-23T11:11:49.085Z,3.80
2022-11-23T11:14:20.728Z,3.80
2022-11-23T11:16:50.896Z,3.80
2022-11-23T11:19:28.635Z,3.80
2022-11-23T11:21:58.577Z,3.80
2022-11-23T11:24:33.426Z,3.80
2022-11-23T11:27:05.470Z,3.80
2022-11-23T11:29:39.148Z,3.80
2022-11-23T11:32:13.828Z,3.80
2022-11-23T11:34:48.846Z,3.80
2022-11-23T11:37:25.932Z,3.90
2022-11-23T11:39:59.073Z,3.80
2022-11-23T11:42:34.739Z,3.80
2022-11-23T11:45:06.270Z,3.80
2022-11-23T11:47:40.781Z,3.80
2022-11-23T11:50:22.505Z,3.80
2022-11-23T11:53:00.046Z,3.80
2022-11-23T11:55:32.378Z,3.80
2022-11-23T11:58:06.586Z,3.80
2022-11-23T12:00:42.112Z,3.80
2022-11-23T12:03:25.816Z,3.80
2022-11-23T12:06:00.487Z,3.80
2022-11-23T12:08:37.058Z,3.90
2022-11-23T12:11:07.286Z,3.90
2022-11-23T12:13:38.348Z,3.90
2022-11-23T12:16:16.369Z,3.90
2022-11-23T12:19:03.662Z,4.00
2022-11-23T12:22:13.411Z,4.00
2022-11-23T12:25:11.410Z,4.00
2022-11-23T12:27:50.494Z,4.00
2022-11-23T12:30:25.713Z,3.90
2022-11-23T12:33:17.590Z,3.90
2022-11-23T12:35:55.959Z,4.00
2022-11-23T12:38:32.298Z,4.00
2022-11-23T12:41:16.845Z,3.90
2022-11-23T12:44:09.121Z,4.00
2022-11-23T12:46:45.154Z,3.90
2022-11-23T12:49:26.512Z,4.00
2022-11-23T12:52:02.425Z,4.00
2022-11-23T12:54:52.425Z,4.00
2022-11-23T12:57:29.203Z,3.90
2022-11-23T13:00:03.353Z,3.90
2022-11-23T13:03:02.399Z,3.90
2022-11-23T13:05:54.321Z,3.90
2022-11-23T13:08:40.557Z,3.90
2022-11-23T13:11:23.446Z,3.90
2022-11-23T13:14:08.875Z,3.90
2022-11-23T13:16:59.568Z,3.90
2022-11-23T13:19:44.647Z,3.90
2022-11-23T13:22:18.544Z,3.90
2022-11-23T13:25:03.548Z,3.90
2022-11-23T13:27:44.026Z,3.90
2022-11-23T13:30:45.699Z,3.90
2022-11-23T13:33:38.082Z,3.90
2022-11-23T13:36:15.278Z,3.90
2022-11-23T13:38:46.891Z,3.90
2022-11-23T13:41:55.763Z,3.80
2022-11-23T13:44:29.067Z,3.80
2022-11-23T13:47:01.880Z,3.80
2022-11-23T13:49:42.445Z,3.80
2022-11-23T13:52:31.842Z,3.70
2022-11-23T13:55:19.577Z,3.80
2022-11-23T13:58:28.884Z,3.80
2022-11-23T14:01:00.305Z,3.70
2022-11-23T14:03:50.298Z,3.70
2022-11-23T14:06:36.096Z,3.70
2022-11-23T14:09:12.425Z,3.70
2022-11-23T14:11:50.383Z,3.70
2022-11-23T14:14:23.720Z,3.70
2022-11-23T14:17:28.501Z,3.70
2022-11-23T14:20:26.385Z,3.70
2022-11-23T14:23:08.636Z,3.70
2022-11-23T14:25:49.052Z,3.70
2022-11-23T14:28:29.648Z,3.80
2022-11-23T14:31:10.831Z,4.00
2022-11-23T14:33:49.031Z,4.10
2022-11-23T14:36:30.379Z,4.10
2022-11-23T14:39:21.721Z,4.30
2022-11-23T14:41:53.383Z,4.30
2022-11-23T14:44:25.626Z,4.40
2022-11-23T14:47:05.537Z,4.60
2022-11-23T14:49:35.700Z,4.70
2022-11-23T14:52:06.559Z,4.70
2022-11-23T14:54:36.451Z,4.80
2022-11-23T14:57:06.321Z,4.80
2022-11-23T14:59:38.532Z,4.70
2022-11-23T15:02:16.871Z,4.80
2022-11-23T15:05:01.860Z,4.90
2022-11-23T15:07:53.577Z,4.80
2022-11-23T15:10:34.915Z,4.90
2022-11-23T15:13:03.512Z,4.90
2022-11-23T15:15:34.132Z,4.80
2022-11-23T15:18:04.134Z,4.80
2022-11-23T15:20:37.098Z,4.90
2022-11-23T15:23:06.297Z,4.90
2022-11-23T15:25:34.778Z,4.90
2022-11-23T15:28:03.541Z,4.90
2022-11-23T15:30:32.398Z,4.80
2022-11-23T15:33:03.911Z,4.80
2022-11-23T15:35:36.717Z,4.80
2022-11-23T15:38:08.894Z,4.80
2022-11-23T15:40:38.979Z,4.80
2022-11-23T15:43:13.019Z,4.80
2022-11-23T15:46:03.533Z,4.70
2022-11-23T15:48:35.284Z,4.70
2022-11-23T15:51:08.490Z,4.70
2022-11-23T15:53:47.485Z,4.70
2022-11-23T15:56:23.646Z,4.70
2022-11-23T15:58:54.263Z,4.70
2022-11-23T16:01:23.428Z,4.70
2022-11-23T16:03:55.736Z,4.70
2022-11-23T16:06:34.574Z,4.70
2022-11-23T16:09:10.090Z,4.70
2022-11-23T16:11:46.501Z,4.70
2022-11-23T16:14:18.561Z,4.70
2022-11-23T16:16:49.110Z,4.70
2022-11-23T16:19:24.216Z,4.70
2022-11-23T16:22:01.957Z,4.60
2022-11-23T16:24:34.404Z,4.60
2022-11-23T16:27:12.912Z,4.60
2022-11-23T16:29:42.511Z,4.60
2022-11-23T16:32:25.029Z,4.60
2022-11-23T16:34:54.534Z,4.60
2022-11-23T16:37:26.397Z,4.60
2022-11-23T16:39:55.494Z,4.60
2022-11-23T16:42:23.968Z,4.60
2022-11-23T16:44:52.950Z,4.60
2022-11-23T16:47:24.521Z,4.50
2022-11-23T16:49:54.277Z,4.50
2022-11-23T16:52:24.862Z,4.50
2022-11-23T16:54:53.875Z,4.50
2022-11-23T16:57:29.910Z,4.40
2022-11-23T17:00:00.470Z,4.40
2022-11-23T17:02:29.177Z,4.40
2022-11-23T17:04:58.248Z,4.40
2022-11-23T17:07:28.530Z,4.40
2022-11-23T17:09:59.244Z,4.60
2022-11-23T17:12:28.127Z,4.40
2022-11-23T17:14:57.125Z,4.40
2022-11-23T17:17:25.534Z,4.40
2022-11-23T17:19:56.675Z,4.40
2022-11-23T17:22:29.826Z,4.40
2022-11-23T17:24:58.841Z,4.40
2022-11-23T17:27:27.503Z,4.40
2022-11-23T17:29:59.424Z,4.40
2022-11-23T17:32:28.953Z,4.30
2022-11-23T17:34:58.423Z,4.40
2022-11-23T17:37:27.525Z,4.40
2022-11-23T17:39:57.738Z,4.40
2022-11-23T17:42:26.234Z,4.30
2022-11-23T17:44:55.228Z,4.30
2022-11-23T17:47:28.959Z,4.30
2022-11-23T17:49:59.249Z,4.30
2022-11-23T17:52:27.663Z,4.30
2022-11-23T17:54:57.778Z,4.30
2022-11-23T17:57:27.867Z,4.30
2022-11-23T18:00:01.848Z,4.30
2022-11-23T18:02:31.717Z,4.30
2022-11-23T18:05:00.680Z,4.30
2022-11-23T18:07:29.245Z,4.30
2022-11-23T18:09:59.642Z,4.30
2022-11-23T18:12:28.100Z,4.20
2022-11-23T18:14:56.778Z,4.20
2022-11-23T18:17:25.448Z,4.20
2022-11-23T18:19:54.361Z,4.20
2022-11-23T18:22:22.826Z,4.20
2022-11-23T18:24:51.739Z,4.20
2022-11-23T18:27:21.684Z,4.20
2022-11-23T18:29:50.658Z,4.20
2022-11-23T18:32:19.621Z,4.20
2022-11-23T18:34:48.863Z,4.20
2022-11-23T18:37:17.293Z,4.20
2022-11-23T18:39:46.090Z,4.20
2022-11-23T18:42:15.119Z,4.10
2022-11-23T18:44:45.205Z,4.10
2022-11-23T18:47:13.584Z,4.00
2022-11-23T18:49:42.219Z,4.00
2022-11-23T18:52:14.060Z,4.00
2022-11-23T18:54:42.917Z,3.90
2022-11-23T18:57:12.197Z,3.90
2022-11-23T19:02:30.668Z,3.90
2022-11-23T19:04:59.912Z,3.80
2022-11-23T19:07:29.253Z,3.80
2022-11-23T19:09:58.333Z,3.80
2022-11-23T19:12:26.638Z,3.70
2022-11-23T19:14:55.356Z,3.70
2022-11-23T19:17:24.221Z,3.70
2022-11-23T19:19:54.327Z,3.70
2022-11-23T19:22:22.784Z,3.70
2022-11-23T19:24:51.633Z,3.70
2022-11-23T19:27:20.077Z,3.80
2022-11-23T19:29:48.977Z,3.80
2022-11-23T19:32:17.652Z,3.90
2022-11-23T19:34:46.336Z,4.10
2022-11-23T19:37:16.297Z,4.20
2022-11-23T19:39:45.322Z,4.30
2022-11-23T19:42:13.802Z,4.40
2022-11-23T19:44:43.121Z,4.50
2022-11-23T19:47:16.393Z,4.50
2022-11-23T19:49:47.875Z,4.60
2022-11-23T19:52:17.582Z,4.60
2022-11-23T19:54:46.279Z,4.60
2022-11-23T19:57:14.715Z,4.60
2022-11-23T19:59:43.688Z,4.70
2022-11-23T20:02:23.253Z,4.70
2022-11-23T20:04:52.986Z,4.80
2022-11-23T20:07:23.137Z,4.80
2022-11-23T20:09:53.497Z,4.80
2022-11-23T20:12:21.934Z,4.80
2022-11-23T20:14:50.560Z,4.90
2022-11-23T20:17:18.933Z,4.80
2022-11-23T20:19:47.546Z,4.80
2022-11-23T20:22:16.333Z,4.80
2022-11-23T20:24:46.880Z,4.70
2022-11-23T20:27:15.633Z,4.60
2022-11-23T20:29:44.572Z,4.50
2022-11-23T20:32:13.149Z,4.50
2022-11-23T20:34:41.748Z,4.50
2022-11-23T20:37:10.126Z,4.40
2022-11-23T20:39:38.765Z,4.40
2022-11-23T20:42:08.507Z,4.40
2022-11-23T20:44:40.950Z,4.30
2022-11-23T20:47:42.173Z,4.30
2022-11-23T20:50:11.471Z,4.30
2022-11-23T20:52:40.171Z,4.30
2022-11-23T20:55:09.847Z,4.30
2022-11-23T20:57:39.778Z,4.30
2022-11-23T21:00:10.329Z,4.30
2022-11-23T21:02:39.144Z,4.20
2022-11-23T21:05:08.765Z,4.30
2022-11-23T21:07:37.269Z,4.20
2022-11-23T21:10:06.782Z,4.20
2022-11-23T21:12:52.404Z,4.20
2022-11-23T21:15:22.558Z,4.20
2022-11-23T21:17:51.015Z,4.10
2022-11-23T21:20:19.834Z,4.20
2022-11-23T21:22:48.277Z,4.10
2022-11-23T21:25:17.238Z,4.10
2022-11-23T21:27:45.597Z,4.00
2022-11-23T21:30:15.098Z,4.00
2022-11-23T21:32:46.147Z,3.90
2022-11-23T21:35:15.063Z,3.90
2022-11-23T21:37:43.464Z,3.90
2022-11-23T21:40:13.626Z,3.80
2022-11-23T21:42:44.671Z,3.80
2022-11-23T21:45:14.104Z,3.70
2022-11-23T21:47:42.460Z,3.70
2022-11-23T21:50:12.766Z,3.60
2022-11-23T21:52:41.237Z,3.50
2022-11-23T21:55:10.991Z,3.50
2022-11-23T21:57:39.647Z,3.50
2022-11-23T22:00:10.348Z,3.50
2022-11-23T22:06:20.622Z,3.50
2022-11-23T22:08:53.054Z,3.50
2022-11-23T22:11:24.432Z,3.50
2022-11-23T22:13:56.375Z,3.50
2022-11-23T22:16:27.821Z,3.50
2022-11-23T22:18:57.910Z,3.40
2022-11-23T22:21:29.914Z,3.40
2022-11-23T22:24:00.548Z,3.30
2022-11-23T22:26:29.732Z,3.30
2022-11-23T22:29:02.661Z,3.20
2022-11-23T22:31:33.373Z,3.20
2022-11-23T22:34:05.815Z,3.20
2022-11-23T22:36:36.254Z,3.10
2022-11-23T22:39:07.434Z,3.10
2022-11-23T22:41:38.161Z,3.10
2022-11-23T22:44:25.180Z,3.00
2022-11-23T22:46:54.868Z,3.00
2022-11-23T22:49:24.922Z,3.00
2022-11-23T22:51:55.618Z,3.00
2022-11-23T22:54:24.929Z,3.00
2022-11-23T22:56:54.130Z,3.00
2022-11-23T22:59:23.518Z,3.00
2022-11-23T23:01:52.709Z,3.10
2022-11-23T23:04:21.944Z,3.10
2022-11-23T23:06:51.254Z,3.10
2022-11-23T23:09:21.927Z,3.10
2022-11-23T23:11:51.117Z,3.00
2022-11-23T23:14:20.423Z,3.00
2022-11-23T23:16:49.448Z,3.10
2022-11-23T23:19:18.950Z,3.00
2022-11-23T23:21:48.131Z,3.00
2022-11-23T23:24:17.510Z,3.00
2022-11-23T23:26:48.077Z,3.00
2022-11-23T23:29:17.380Z,3.00
2022-11-23T23:31:46.574Z,3.00
2022-11-23T23:34:16.068Z,3.00
2022-11-23T23:36:45.468Z,3.00
2022-11-23T23:39:17.965Z,3.10
2022-11-23T23:41:48.592Z,3.00
2022-11-23T23:44:18.189Z,3.10
2022-11-23T23:46:47.212Z,3.00
2022-11-23T23:49:17.747Z,3.00
2022-11-23T23:51:51.448Z,3.00
2022-11-23T23:54:20.944Z,3.00
2022-11-23T23:56:51.586Z,3.00
2022-11-23T23:59:23.761Z,3.00
